Aérodrome :
LOGIN :

S'inscrire | Disclaimer

   EN    FR    IT 

 










Légende :    VFR   VFR Marginal   IFR   IFR Intensif   IFR Très Intensif
Visi : 
Plafond : 
>= 8 km
>= 3000ft
5 à 8 km
1000 à 3000 ft
1500m à 5 km
500 à 1000 ft
800 à 1500m
200 à 500 ft
< 800m
< 200 ft
Symboles :   Orages  Brouillard  Fortes neiges  Fortes précipitations  Vent > 20 kt
SIGMETs :   Divers  Orages  Givrage  Turbulence  Onde Orograph.  Cendres Volcan.







- Altitude de l'aérodrome : 3125 ft
- Code IATA : ESB


LTAC - Ankara Esenboga

DERNIER METAR :
  • 181250Z 26007KT 9999 SCT040 15/01 Q1019 NOSIG RMK RWY21L VRB07KT RWY03L 28005KT 220V010 RWY21R 24007KT 200V290

METARs EXPIRÉS :
  • 181220Z 26008KT 9999 SCT040 15/01 Q1019 NOSIG RMK RWY21L 24008KT 210V280 RWY03L 24008KT 210V270 RWY21R 25007KT 150V290
  • 181150Z 28007KT 9999 SCT040 14/02 Q1019 NOSIG RMK RWY21L 23006KT 180V270 RWY03L VRB04KT RWY21R 23008KT 180V270
  • 181120Z 28008KT 9999 SCT040 14/00 Q1019 NOSIG RMK RWY21L VRB04KT RWY03L 27008KT 230V310 RWY21R 27005KT 180V350
  • 181050Z 31006KT 9999 SCT040 13/M00 Q1020 NOSIG
  • 181020Z VRB05KT 9999 SCT040 13/01 Q1020 NOSIG RMK RWY21L 26006KT 200V320 RWY03L 26005KT 190V350 RWY21R 26006KT 210V340

TAF TAF LTAC
Valide du 18 à 12h jusqu'au 19 à 12h UTC


181040Z 1812/1912 VRB02KT 9999 FEW040
BECMG 1813/1815 CAVOK
PROB30
TEMPO 1900/1904 4000 BR
BECMG 1907/1909 FEW040
Pas de NOTAMs connus pour ce terrain.



MET'MAP, la Météo Aéronautique d'un coup d'oeil ! - Copyright ORBIFLY Décembre 2007 - Disclaimer

ORBIFLY MET'MAP TEAM :

Programmation & Développement : Alexandra Zaïnal
Conception & Développement : Baudouin d'Aumeries
Co-Programmation & Développement : Marc-Olivier Méhu
Soutien technique & logistique : Manuel Goepfert

Contact : metmap@orbifly.com




SOURCES & CREDITS :

   NOAA